x

Portlock Bank- 76nm Ene Of Kodiak, Ak (46080) Wave Buoy

4:50am - Tue 2nd Sep 2014 All times are AKDT. -8 hours from GMT.

  • Sig Wave height 4.6ft
  • Peak Period 8s
  • Average Period 5s
  • Wind
    11mph, 13mph gusts
  • Sea Temp 54°f
  • Air Temp 54°f
  • Sea Pressure 1017.2mb
  • Portlock Bank- 76nm Ene Of Kodiak, Ak
  • Portlock Bank- 76nm Ene Of Kodiak, Ak

More Historic Weather Station data

Upgrade to MSW Pro to gain access to the past 30 days of data for over 8000 Wavebouys and Weather Stations around the globe.

Join Pro

Comparision Forecast

View Surf forecast
   
Tue 09/02 4:50am 4.5ft 8s 5s 11 13 mph 1017.2mb 54f 54f
3:50am 5ft 5s 5s 16 18 mph 1017mb 54f 54f
2:50am 5ft 6s 5s 18 22 mph 1017.3mb 54f 54f
1:50am 6ft 5s 5s 20 27 mph 1017.2mb 54f 55f
12:50am 6ft 5s 5s 25 29 mph 1016.5mb 54f 55f
Mon 09/01 11:50pm 5ft 6s 4s 25 31 mph 1016.4mb 54f 56f
10:50pm 4.5ft 6s 5s 13 18 mph 1016.7mb 54f 55f
9:50pm 4.5ft 6s 5s 16 20 mph 1016.4mb 54f 55f
8:50pm 4.5ft 6s 5s 11 13 mph 1016.4mb 54f 55f
7:50pm 5ft 7s 5s 9 11 mph 1016.5mb 54f 54f
6:50pm 5ft 8s 5s 13 16 mph 1016.6mb 54f 55f
5:50pm 6.5ft 7s 5s 13 16 mph 1016.7mb 54f 55f
4:50pm 6ft 8s 5s 18 20 mph 1016.6mb 54f 55f
3:50pm 6ft 7s 5s 16 20 mph 1016.7mb 54f 55f
2:50pm 7ft 7s 6s 18 25 mph 1016.4mb 54f 55f
1:50pm 7ft 7s 5s 18 22 mph 1015.8mb 54f 54f
12:50pm 7ft 7s 6s 18 22 mph 1015.5mb 54f 54f
11:50am 8ft 8s 6s 20 25 mph 1015mb 54f 54f
10:50am 8ft 7s 5s 22 27 mph 1014mb 54f 54f
9:50am 8ft 7s 5s 22 27 mph 1013.6mb 53f 53f
8:50am 7ft 7s 5s 22 27 mph 1012.9mb 53f 53f
7:50am 7ft 7s 5s 22 27 mph 1012.2mb 53f 53f
6:50am 8ft 8s 5s 25 31 mph 1011.6mb 53f 53f
5:50am 7ft 7s 5s 25 31 mph 1011.2mb 53f 53f
4:50am 6.5ft 9s 5s 25 29 mph 1010.7mb 53f 53f
3:50am 6.5ft 6s 5s 25 29 mph 1010.4mb 53f 54f
2:50am 6.5ft 7s 5s 22 29 mph 1010.2mb 54f 54f
1:50am 6ft 6s 5s 22 29 mph 1010.1mb 54f 54f
12:50am 6.5ft 6s 5s 18 22 mph 1009.9mb 54f 55f
Sun 08/31 11:50pm 6ft 8s 5s 20 22 mph 1009.5mb 54f 54f
10:50pm 6ft 6s 5s 18 22 mph 1009.4mb 53f 54f
9:50pm 6.5ft 6s 5s 25 27 mph 1008.8mb 53f 55f
8:50pm 5.5ft 6s 5s 22 29 mph 1008.4mb 53f 55f
7:50pm 5ft 7s 5s 16 20 mph 1008.3mb 53f 54f
6:50pm 5ft 7s 5s 18 20 mph 1008mb 53f 54f
5:50pm 5ft 6s 5s 16 20 mph 1007.7mb 53f 54f
4:50pm 5ft 6s 5s 18 20 mph 1007.5mb 53f 53f
3:50pm 3.5ft 13s 5s 13 18 mph 1007.4mb 53f 54f
2:50pm 3.5ft 14s 5s 13 16 mph 1007.1mb 53f 53f
1:50pm 3ft 4s 4s 16 20 mph 1006.7mb 53f 54f
12:50pm 3.5ft 14s 4s 16 18 mph 1006.4mb 53f 53f
11:50am 3.5ft 14s 5s 16 20 mph 1006mb 53f 53f
10:50am 2.5ft 14s 4s 11 13 mph 1005.4mb 54f 53f
9:50am 3ft 13s 6s 11
mph
1004.9mb 53f 53f
8:50am 2.5ft 14s 6s 11 13 mph 1004.4mb 53f 53f
7:50am 3ft 15s 8s 7 11 mph 1004.1mb 53f 52f
6:50am 2.5ft 15s 8s 7 9 mph 1003.7mb 53f 52f
5:50am 2.5ft 14s 7s 7
mph
1003.3mb 53f 53f
4:50am 2.5ft 14s 7s 7 9 mph 1003.2mb 53f 53f
3:50am 2.5ft 14s 7s 7 9 mph 1003.1mb 53f 53f
2:50am 3.5ft 14s 8s 4
mph
1002.7mb 53f 52f
1:50am 3.5ft 14s 6s 2 4 mph 1002.5mb 53f 52f
12:50am 3.5ft 14s 7s 4 7 mph 1002.2mb 54f 53f
Sat 08/30 11:50pm 3.5ft 15s 6s 4
mph
1001.8mb 53f 53f
10:50pm 4ft 15s 6s 4 7 mph 1001.5mb 53f 53f
9:50pm 4ft 15s 6s 4 7 mph 1001.2mb 53f 53f
8:50pm 3.5ft 15s 6s 4 7 mph 1000.8mb 53f 53f
7:50pm 4ft 15s 6s 7
mph
1000.8mb 53f 53f
6:50pm 3.5ft 15s 6s 4
mph
1000.8mb 53f 53f
5:50pm 4ft 15s 6s 2 4 mph 1001.1mb 53f 53f
4:50pm 3.5ft 7s 6s 2 4 mph 1001.1mb 53f 53f
3:50pm 4ft 15s 6s 4
mph
1001.3mb 53f 54f
2:50pm 4.5ft 6s 6s 4
mph
1001.5mb 54f 54f
1:50pm 4.5ft 15s 6s 4
mph
1001.6mb 53f 53f
12:50pm 5ft 15s 6s 4
mph
1002.1mb 53f 53f
11:50am 4.5ft 7s 5s 4 7 mph 1002.2mb 53f 53f
10:50am 5ft 7s 5s 7
mph
1002.2mb 54f 53f
9:50am 5ft 7s 5s 9
mph
1002.3mb 53f 53f
8:50am 5ft 6s 5s 9 11 mph 1002.4mb 53f 54f
7:50am 5ft 6s 5s 9 11 mph 1002.4mb 53f 54f
6:50am 4.5ft 6s 5s 11
mph
1002.5mb 53f 54f
5:50am 4.5ft 6s 5s 9 13 mph 1002.5mb 53f 54f
4:50am 4.5ft 6s 5s 11 13 mph 1002.3mb 53f 54f
3:50am 4.5ft 7s 5s 11 13 mph 1002.6mb 53f 54f
2:50am 4.5ft 7s 5s 13 16 mph 1002.7mb 53f 54f
1:50am 5ft 8s 6s 13 16 mph 1003.1mb 53f 55f
12:50am 4.5ft 8s 6s 13 16 mph 1003mb 54f 55f
Fri 08/29 11:50pm 5ft 7s 5s 11 13 mph 1002.9mb 54f 55f
10:50pm 5ft 7s 6s 9
mph
1002.9mb 54f 55f
9:50pm 5.5ft 8s 5s 9
mph
1002.9mb 54f 54f
8:50pm 6ft 8s 5s 9 11 mph 1003mb 54f 55f
7:50pm 6ft 8s 6s 11 13 mph 1002.8mb 54f 55f
6:50pm 6ft 8s 6s 11 13 mph 1002.7mb 54f 56f
5:50pm 6ft 8s 6s 11 13 mph 1002.5mb 54f 55f
4:50pm 6.5ft 6s 6s 13 16 mph 1002.5mb 54f 55f
3:50pm 6.5ft 8s 5s 18 20 mph 1002.5mb 53f 55f
2:50pm 6ft 8s 5s 16 22 mph 1002.6mb 53f 55f